createdAt,value
2017-12-12T00:00:51.692Z,2.10
2017-12-12T00:03:19.358Z,2.20
2017-12-12T00:05:46.855Z,2.20
2017-12-12T00:08:14.877Z,2.20
2017-12-12T00:10:42.654Z,2.10
2017-12-12T00:13:10.411Z,2.10
2017-12-12T00:15:37.933Z,2.10
2017-12-12T00:18:05.432Z,2.00
2017-12-12T00:20:33.079Z,2.00
2017-12-12T00:23:01.160Z,2.00
2017-12-12T00:25:29.168Z,2.00
2017-12-12T00:27:57.291Z,2.10
2017-12-12T00:30:24.799Z,2.00
2017-12-12T00:32:52.515Z,2.10
2017-12-12T00:35:20.033Z,2.10
2017-12-12T00:37:47.716Z,2.20
2017-12-12T00:40:15.495Z,2.20
2017-12-12T00:42:42.994Z,2.00
2017-12-12T00:45:10.716Z,2.00
2017-12-12T00:47:38.219Z,2.10
2017-12-12T00:50:05.944Z,2.10
2017-12-12T00:52:33.454Z,2.00
2017-12-12T00:55:01.135Z,2.10
2017-12-12T00:57:28.636Z,2.00
2017-12-12T00:59:56.911Z,1.90
2017-12-12T01:02:24.457Z,2.00
2017-12-12T01:04:51.964Z,2.00
2017-12-12T01:07:19.668Z,1.90
2017-12-12T01:09:47.182Z,2.00
2017-12-12T01:12:15.512Z,2.00
2017-12-12T01:14:43.020Z,2.00
2017-12-12T01:17:10.730Z,1.90
2017-12-12T01:19:38.224Z,1.90
2017-12-12T01:22:06.433Z,2.00
2017-12-12T01:24:33.986Z,2.00
2017-12-12T01:27:01.780Z,2.00
2017-12-12T01:29:29.544Z,2.10
2017-12-12T01:31:57.302Z,2.10
2017-12-12T01:34:25.068Z,2.10
2017-12-12T01:36:53.520Z,2.30
2017-12-12T01:39:21.207Z,2.40
2017-12-12T01:41:48.976Z,2.30
2017-12-12T01:44:16.471Z,2.30
2017-12-12T01:46:43.979Z,2.30
2017-12-12T01:49:11.480Z,2.30
2017-12-12T01:51:39.006Z,2.30
2017-12-12T01:54:06.564Z,2.20
2017-12-12T01:56:34.327Z,2.10
2017-12-12T01:59:02.096Z,2.10
2017-12-12T02:01:29.611Z,2.00
2017-12-12T02:03:57.116Z,2.00
2017-12-12T02:06:24.696Z,2.10
2017-12-12T02:08:52.229Z,1.90
2017-12-12T02:11:19.782Z,1.80
2017-12-12T02:13:47.279Z,2.00
2017-12-12T02:16:15.539Z,2.00
2017-12-12T02:18:43.249Z,1.90
2017-12-12T02:21:10.747Z,2.00
2017-12-12T02:23:38.501Z,1.90
2017-12-12T02:26:06.004Z,1.90
2017-12-12T02:28:33.505Z,1.80
2017-12-12T02:31:01.003Z,1.90
2017-12-12T02:33:28.512Z,1.90
2017-12-12T02:35:56.011Z,1.90
2017-12-12T02:38:24.282Z,2.00
2017-12-12T02:40:51.924Z,1.80
2017-12-12T02:43:19.455Z,1.90
2017-12-12T02:45:46.940Z,1.90
2017-12-12T02:48:14.603Z,1.80
2017-12-12T02:50:42.095Z,1.70
2017-12-12T02:53:09.608Z,1.70
2017-12-12T02:55:37.274Z,1.80
2017-12-12T02:58:04.991Z,2.00
2017-12-12T03:00:32.489Z,2.00
2017-12-12T03:03:00.258Z,1.70
2017-12-12T03:05:27.760Z,1.60
2017-12-12T03:07:55.384Z,1.70
2017-12-12T03:10:23.856Z,1.60
2017-12-12T03:12:51.619Z,1.60
2017-12-12T03:15:19.587Z,1.50
2017-12-12T03:17:47.092Z,1.40
2017-12-12T03:20:15.840Z,1.40
2017-12-12T03:22:43.336Z,1.50
2017-12-12T03:25:11.067Z,1.50
2017-12-12T03:27:39.043Z,1.40
2017-12-12T03:30:06.551Z,1.40
2017-12-12T03:32:35.323Z,1.30
2017-12-12T03:35:03.041Z,1.30
2017-12-12T03:37:32.038Z,1.20
2017-12-12T03:40:01.070Z,1.20
2017-12-12T03:42:29.084Z,1.20
2017-12-12T03:44:56.618Z,1.30
2017-12-12T03:47:24.312Z,1.30
2017-12-12T03:49:52.011Z,1.40
2017-12-12T03:52:19.519Z,1.50
2017-12-12T03:54:47.186Z,1.40
2017-12-12T03:57:14.744Z,1.40
2017-12-12T03:59:42.244Z,1.40
2017-12-12T04:02:09.755Z,1.30
2017-12-12T04:04:37.639Z,1.30
2017-12-12T04:07:05.154Z,1.30
2017-12-12T04:09:32.776Z,1.20
2017-12-12T04:12:00.723Z,1.30
2017-12-12T04:14:28.211Z,1.20
2017-12-12T04:16:56.209Z,1.20
2017-12-12T04:19:23.712Z,1.10
2017-12-12T04:21:51.451Z,1.10
2017-12-12T04:24:19.534Z,1.20
2017-12-12T04:26:47.052Z,1.20
2017-12-12T04:29:14.556Z,1.20
2017-12-12T04:31:42.064Z,1.30
2017-12-12T04:34:09.588Z,1.30
2017-12-12T04:36:37.087Z,1.30
2017-12-12T04:39:04.588Z,1.20
2017-12-12T04:41:32.146Z,1.20
2017-12-12T04:43:59.636Z,1.20
2017-12-12T04:46:28.008Z,1.20
2017-12-12T04:48:56.555Z,1.30
2017-12-12T04:51:24.259Z,1.20
2017-12-12T04:53:52.084Z,1.30
2017-12-12T04:56:19.571Z,1.20
2017-12-12T04:58:47.083Z,1.20
2017-12-12T05:01:14.752Z,1.20
2017-12-12T05:03:42.264Z,1.20
2017-12-12T05:06:09.796Z,1.20
2017-12-12T05:08:38.464Z,1.20
2017-12-12T05:11:06.051Z,1.20
2017-12-12T05:13:34.715Z,1.10
2017-12-12T05:16:02.876Z,1.10
2017-12-12T05:18:30.381Z,1.10
2017-12-12T05:20:58.396Z,1.20
2017-12-12T05:23:25.920Z,1.20
2017-12-12T05:25:53.619Z,1.20
2017-12-12T05:28:21.431Z,1.20
2017-12-12T05:30:49.459Z,1.20
2017-12-12T05:33:16.975Z,1.10
2017-12-12T05:35:44.475Z,1.20
2017-12-12T05:38:12.272Z,1.20
2017-12-12T05:40:40.548Z,1.20
2017-12-12T05:43:08.445Z,1.20
2017-12-12T05:45:36.039Z,1.20
2017-12-12T05:48:04.104Z,1.20
2017-12-12T05:50:31.625Z,1.20
2017-12-12T05:52:59.283Z,1.30
2017-12-12T05:55:26.809Z,1.30
2017-12-12T05:57:54.311Z,1.20
2017-12-12T06:00:21.811Z,1.30
2017-12-12T06:02:49.303Z,1.20
2017-12-12T06:05:17.207Z,1.20
2017-12-12T06:07:44.756Z,1.20
2017-12-12T06:10:12.223Z,1.20
2017-12-12T06:12:39.835Z,1.20
2017-12-12T06:15:08.332Z,1.30
2017-12-12T06:17:35.855Z,1.20
2017-12-12T06:20:03.919Z,1.30
2017-12-12T06:22:31.413Z,1.20
2017-12-12T06:24:59.943Z,1.30
2017-12-12T06:27:27.857Z,1.20
2017-12-12T06:29:56.388Z,1.30
2017-12-12T06:32:24.165Z,1.20
2017-12-12T06:34:51.915Z,1.20
2017-12-12T06:37:19.434Z,1.20
2017-12-12T06:39:46.945Z,1.20
2017-12-12T06:42:15.232Z,1.30
2017-12-12T06:44:44.423Z,1.30
2017-12-12T06:47:11.971Z,1.30
2017-12-12T06:49:39.735Z,1.30
2017-12-12T06:52:07.648Z,1.30
2017-12-12T06:54:35.923Z,1.40
2017-12-12T06:57:03.440Z,1.30
2017-12-12T06:59:30.939Z,1.30
2017-12-12T07:01:58.978Z,1.30
2017-12-12T07:04:26.483Z,1.30
2017-12-12T07:06:54.991Z,1.30
2017-12-12T07:09:22.764Z,1.30
2017-12-12T07:11:50.531Z,2.40
2017-12-12T07:14:18.038Z,3.20
2017-12-12T07:16:45.944Z,3.80
2017-12-12T07:19:13.520Z,4.10
2017-12-12T07:21:41.133Z,4.90
2017-12-12T07:24:09.648Z,3.10
2017-12-12T07:26:37.152Z,2.20
2017-12-12T07:29:05.719Z,1.70
2017-12-12T07:31:33.261Z,1.60
2017-12-12T07:34:00.764Z,1.50
2017-12-12T07:36:28.463Z,1.40
2017-12-12T07:38:55.975Z,1.40
2017-12-12T07:41:23.473Z,1.50
2017-12-12T07:43:51.147Z,1.40
2017-12-12T07:46:19.108Z,1.40
2017-12-12T07:48:47.073Z,1.50
2017-12-12T07:51:14.564Z,1.50
2017-12-12T07:53:42.219Z,1.50
2017-12-12T07:56:09.710Z,1.50
2017-12-12T07:58:37.975Z,1.50
2017-12-12T08:01:05.791Z,1.50
2017-12-12T08:03:33.295Z,1.40
2017-12-12T08:06:01.320Z,1.50
2017-12-12T08:08:29.231Z,1.50
2017-12-12T08:10:57.491Z,1.60
2017-12-12T08:13:25.528Z,1.50
2017-12-12T08:15:53.304Z,1.60
2017-12-12T08:18:21.060Z,1.50
2017-12-12T08:20:48.560Z,1.60
2017-12-12T08:23:16.068Z,1.50
2017-12-12T08:25:43.988Z,1.60
2017-12-12T08:28:11.900Z,1.60
2017-12-12T08:30:39.403Z,1.50
2017-12-12T08:33:06.915Z,1.60
2017-12-12T08:35:34.493Z,1.60
2017-12-12T08:38:02.057Z,1.60
2017-12-12T08:40:29.568Z,1.60
2017-12-12T08:42:57.087Z,1.70
2017-12-12T08:45:24.596Z,1.80
2017-12-12T08:47:52.100Z,1.70
2017-12-12T08:50:20.154Z,1.60
2017-12-12T08:52:48.220Z,1.70
2017-12-12T08:55:15.720Z,1.70
2017-12-12T08:57:43.416Z,1.70
2017-12-12T09:00:11.312Z,1.80
2017-12-12T09:02:39.270Z,1.80
2017-12-12T09:05:07.032Z,1.80
2017-12-12T09:07:34.800Z,1.80
2017-12-12T09:10:02.768Z,1.80
2017-12-12T09:12:30.296Z,1.80
2017-12-12T09:14:57.795Z,1.80
2017-12-12T09:17:25.418Z,1.90
2017-12-12T09:19:52.966Z,1.90
2017-12-12T09:22:21.071Z,1.90
2017-12-12T09:24:48.567Z,1.90
2017-12-12T09:27:16.069Z,1.90
2017-12-12T09:29:43.564Z,1.90
2017-12-12T09:32:11.386Z,1.90
2017-12-12T09:34:38.966Z,2.00
2017-12-12T09:37:06.499Z,2.00
2017-12-12T09:39:34.198Z,1.90
2017-12-12T09:42:01.704Z,2.00
2017-12-12T09:44:30.278Z,2.10
2017-12-12T09:46:57.780Z,2.00
2017-12-12T09:49:25.283Z,2.00
2017-12-12T09:51:52.797Z,2.00
2017-12-12T09:54:20.684Z,2.00
2017-12-12T09:56:48.199Z,2.00
2017-12-12T09:59:15.687Z,2.00
2017-12-12T10:01:43.447Z,2.00
2017-12-12T10:04:10.939Z,2.00
2017-12-12T10:06:39.583Z,1.90
2017-12-12T10:09:07.348Z,1.70
2017-12-12T10:11:35.564Z,1.80
2017-12-12T10:14:03.054Z,1.80
2017-12-12T10:16:31.205Z,1.80
2017-12-12T10:18:58.716Z,1.70
2017-12-12T10:21:26.207Z,1.70
2017-12-12T10:23:53.714Z,1.80
2017-12-12T10:26:21.392Z,1.90
2017-12-12T10:28:48.904Z,1.90
2017-12-12T10:31:17.444Z,1.80
2017-12-12T10:33:46.538Z,1.80
2017-12-12T10:36:14.055Z,1.80
2017-12-12T10:38:41.959Z,1.80
2017-12-12T10:41:09.847Z,1.80
2017-12-12T10:43:37.467Z,1.70
2017-12-12T10:46:05.512Z,1.70
2017-12-12T10:48:33.727Z,1.60
2017-12-12T10:51:01.215Z,1.60
2017-12-12T10:53:28.948Z,1.70
2017-12-12T10:55:56.451Z,1.70
2017-12-12T10:58:23.951Z,1.60
2017-12-12T11:00:51.505Z,1.60
2017-12-12T11:03:19.073Z,1.60
2017-12-12T11:05:46.839Z,1.60
2017-12-12T11:08:14.647Z,1.60
2017-12-12T11:10:42.369Z,1.50
2017-12-12T11:13:10.243Z,1.50
2017-12-12T11:15:37.891Z,1.50
2017-12-12T11:18:06.679Z,1.50
2017-12-12T11:20:34.298Z,1.50
2017-12-12T11:23:01.800Z,1.50
2017-12-12T11:25:29.311Z,1.50
2017-12-12T11:27:57.012Z,1.50
2017-12-12T11:30:25.087Z,1.60
2017-12-12T11:32:52.852Z,1.40
2017-12-12T11:35:20.469Z,1.40
2017-12-12T11:37:48.067Z,1.40
2017-12-12T11:40:15.813Z,1.30
2017-12-12T11:42:43.317Z,1.20
2017-12-12T11:45:12.696Z,1.20
2017-12-12T11:47:40.367Z,1.20
2017-12-12T11:50:08.279Z,1.30
2017-12-12T11:52:35.788Z,1.20
2017-12-12T11:55:03.309Z,1.10
2017-12-12T11:57:31.211Z,1.20
2017-12-12T11:59:58.715Z,1.20
2017-12-12T12:02:27.239Z,1.20
2017-12-12T12:04:55.007Z,1.20
2017-12-12T12:07:23.284Z,1.30
2017-12-12T12:09:50.816Z,1.20
2017-12-12T12:12:18.313Z,1.20
2017-12-12T12:14:45.843Z,1.20
2017-12-12T12:17:14.144Z,1.20
2017-12-12T12:19:41.648Z,1.20
2017-12-12T12:22:09.151Z,1.20
2017-12-12T12:24:36.731Z,1.10
2017-12-12T12:27:04.261Z,1.20
2017-12-12T12:29:31.779Z,1.20
2017-12-12T12:31:59.491Z,1.20
2017-12-12T12:34:27.858Z,1.20
2017-12-12T12:36:55.500Z,1.20
2017-12-12T12:39:23.000Z,1.20
2017-12-12T12:41:50.903Z,1.20
2017-12-12T12:44:18.613Z,1.30
2017-12-12T12:46:46.375Z,1.20
2017-12-12T12:49:13.871Z,1.20
2017-12-12T12:51:41.383Z,1.20
2017-12-12T12:54:10.027Z,1.10
2017-12-12T12:56:37.731Z,1.20
2017-12-12T12:59:05.227Z,1.10
2017-12-12T13:01:32.984Z,1.10
2017-12-12T13:04:00.488Z,1.10
2017-12-12T13:06:28.008Z,1.00
2017-12-12T13:08:56.272Z,1.00
2017-12-12T13:11:25.547Z,1.10
2017-12-12T13:13:53.776Z,1.10
2017-12-12T13:16:21.995Z,1.10
2017-12-12T13:18:49.759Z,1.20
2017-12-12T13:21:17.516Z,1.20
2017-12-12T13:23:45.493Z,1.20
2017-12-12T13:26:13.013Z,1.20
2017-12-12T13:28:40.515Z,1.20
2017-12-12T13:31:08.476Z,1.20
2017-12-12T13:33:36.957Z,1.30
2017-12-12T13:36:04.444Z,1.30
2017-12-12T13:38:31.956Z,1.40
2017-12-12T13:40:59.634Z,1.40
2017-12-12T13:43:27.140Z,1.50
2017-12-12T13:45:55.500Z,1.50
2017-12-12T13:48:23.204Z,1.50
2017-12-12T13:50:50.695Z,1.50
2017-12-12T13:55:52.152Z,1.50
2017-12-12T13:58:19.779Z,1.60
2017-12-12T14:00:47.791Z,1.60
2017-12-12T14:03:15.757Z,1.70
2017-12-12T14:05:43.195Z,1.60
2017-12-12T14:08:10.716Z,1.70
2017-12-12T14:10:38.453Z,1.70
2017-12-12T14:13:07.003Z,1.70
2017-12-12T14:15:34.499Z,1.70
2017-12-12T14:18:02.025Z,1.70
2017-12-12T14:20:29.711Z,1.70
2017-12-12T14:22:57.218Z,1.70
2017-12-12T14:25:25.228Z,1.70
2017-12-12T14:27:52.848Z,1.70
2017-12-12T14:30:20.432Z,1.80
2017-12-12T14:32:48.452Z,1.70
2017-12-12T14:35:15.944Z,1.80
2017-12-12T14:37:43.438Z,1.70
2017-12-12T14:40:12.665Z,1.70
2017-12-12T14:42:41.287Z,1.80
2017-12-12T14:45:08.830Z,1.80
2017-12-12T14:47:36.728Z,1.80
2017-12-12T14:50:04.239Z,1.90
2017-12-12T14:52:32.463Z,1.90
2017-12-12T14:55:00.524Z,1.90
2017-12-12T14:57:28.591Z,1.90
2017-12-12T14:59:56.858Z,1.90
2017-12-12T15:02:24.420Z,1.90
2017-12-12T15:04:51.914Z,1.90
2017-12-12T15:07:19.643Z,1.90
2017-12-12T15:09:47.413Z,1.90
2017-12-12T15:12:15.176Z,1.90
2017-12-12T15:14:42.940Z,2.00
2017-12-12T15:17:10.430Z,2.00
2017-12-12T15:19:38.172Z,2.00
2017-12-12T15:22:06.233Z,2.00
2017-12-12T15:24:33.996Z,2.00
2017-12-12T15:27:01.488Z,2.00
2017-12-12T15:29:29.012Z,2.10
2017-12-12T15:31:56.983Z,2.10
2017-12-12T15:34:25.400Z,2.20
2017-12-12T15:36:52.892Z,2.20
2017-12-12T15:39:21.168Z,2.30
2017-12-12T15:41:48.956Z,2.20
2017-12-12T15:44:16.844Z,2.30
2017-12-12T15:46:44.438Z,2.30
2017-12-12T15:49:12.493Z,2.30
2017-12-12T15:51:40.393Z,2.40
2017-12-12T15:54:07.952Z,2.30
2017-12-12T15:56:36.211Z,2.30
2017-12-12T15:59:03.704Z,2.40
2017-12-12T16:01:31.204Z,2.40
2017-12-12T16:03:59.486Z,2.30
2017-12-12T16:06:26.965Z,2.30
2017-12-12T16:08:54.464Z,2.30
2017-12-12T16:11:21.964Z,2.30
2017-12-12T16:13:50.254Z,2.30
2017-12-12T16:16:18.260Z,2.30
2017-12-12T16:18:46.024Z,2.20
2017-12-12T16:21:13.527Z,2.20
2017-12-12T16:23:41.411Z,2.30
2017-12-12T16:26:09.696Z,2.20
2017-12-12T16:28:38.607Z,2.20
2017-12-12T16:31:06.371Z,2.10
2017-12-12T16:33:34.540Z,2.10
2017-12-12T16:36:02.212Z,2.30
2017-12-12T16:38:29.720Z,2.20
2017-12-12T16:40:57.731Z,2.10
2017-12-12T16:43:25.995Z,2.20
2017-12-12T16:45:54.003Z,2.10
2017-12-12T16:48:21.515Z,2.10
2017-12-12T16:50:49.095Z,2.20
2017-12-12T16:53:16.813Z,2.30
2017-12-12T16:55:44.319Z,2.30
2017-12-12T16:58:12.075Z,2.20
2017-12-12T17:00:39.580Z,2.20
2017-12-12T17:03:07.852Z,2.20
2017-12-12T17:05:35.861Z,2.20
2017-12-12T17:08:03.448Z,2.20
2017-12-12T17:10:30.935Z,2.20
2017-12-12T17:12:58.435Z,2.20
2017-12-12T17:15:26.948Z,2.10
2017-12-12T17:17:55.414Z,2.10
2017-12-12T17:20:22.929Z,2.00
2017-12-12T17:22:50.419Z,2.10
2017-12-12T17:25:17.952Z,2.10
2017-12-12T17:27:46.475Z,2.10
2017-12-12T17:30:15.260Z,2.10
2017-12-12T17:32:42.796Z,2.10
2017-12-12T17:35:10.792Z,2.20
2017-12-12T17:37:38.412Z,2.10
2017-12-12T17:40:06.216Z,2.10
2017-12-12T17:42:34.593Z,2.20
2017-12-12T17:45:02.356Z,2.20
2017-12-12T17:47:30.255Z,2.20
2017-12-12T17:49:57.879Z,2.10
2017-12-12T17:52:25.366Z,2.20
2017-12-12T17:54:53.103Z,2.20
2017-12-12T17:57:21.244Z,2.30
2017-12-12T17:59:48.939Z,2.30
2017-12-12T18:02:16.440Z,2.30
2017-12-12T18:04:44.876Z,2.10
2017-12-12T18:07:12.726Z,2.20
2017-12-12T18:09:40.225Z,2.10
2017-12-12T18:12:07.755Z,2.10
2017-12-12T18:14:36.135Z,2.10
2017-12-12T18:17:03.748Z,2.10
2017-12-12T18:19:31.243Z,2.20
2017-12-12T18:21:59.146Z,2.20
2017-12-12T18:24:26.871Z,2.10
2017-12-12T18:26:54.639Z,2.10
2017-12-12T18:29:22.141Z,2.10
2017-12-12T18:31:49.840Z,2.20
2017-12-12T18:34:17.626Z,2.10
2017-12-12T18:36:45.138Z,2.10
2017-12-12T18:39:13.459Z,2.10
2017-12-12T18:41:41.536Z,2.10
2017-12-12T18:44:09.028Z,2.00
2017-12-12T18:46:38.099Z,1.90
2017-12-12T18:49:05.749Z,2.00
2017-12-12T18:51:33.267Z,2.00
2017-12-12T18:54:01.639Z,2.00
2017-12-12T18:56:29.540Z,2.00
2017-12-12T18:58:57.057Z,2.00
2017-12-12T19:01:24.551Z,2.00
2017-12-12T19:03:52.070Z,2.00
2017-12-12T19:06:19.553Z,2.00
2017-12-12T19:08:47.059Z,1.90
2017-12-12T19:11:15.472Z,2.00
2017-12-12T19:13:43.036Z,1.90
2017-12-12T19:16:10.932Z,1.90
2017-12-12T19:18:38.923Z,1.90
2017-12-12T19:21:06.803Z,1.80
2017-12-12T19:23:34.313Z,1.80
2017-12-12T19:26:01.892Z,1.80
2017-12-12T19:28:29.604Z,1.80
2017-12-12T19:30:57.996Z,1.80
2017-12-12T19:33:25.519Z,1.80
2017-12-12T19:35:53.011Z,1.90
2017-12-12T19:38:20.630Z,1.90
2017-12-12T19:40:48.131Z,1.80
2017-12-12T19:43:16.028Z,1.90
2017-12-12T19:45:43.655Z,1.80
2017-12-12T19:48:12.376Z,1.80
2017-12-12T19:50:40.272Z,1.80
2017-12-12T19:53:08.199Z,1.80
2017-12-12T19:55:35.696Z,1.70
2017-12-12T19:58:03.232Z,1.70
2017-12-12T20:00:30.738Z,1.80
2017-12-12T20:02:59.010Z,1.80
2017-12-12T20:05:26.922Z,1.90
2017-12-12T20:07:54.484Z,1.80
2017-12-12T20:10:21.998Z,1.90
2017-12-12T20:12:50.327Z,1.90
2017-12-12T20:15:18.440Z,1.90
2017-12-12T20:17:46.160Z,1.90
2017-12-12T20:20:13.667Z,1.90
2017-12-12T20:22:41.557Z,1.80
2017-12-12T20:25:09.580Z,1.80
2017-12-12T20:27:37.211Z,1.80
2017-12-12T20:30:04.718Z,1.90
2017-12-12T20:32:32.434Z,1.80
2017-12-12T20:35:00.204Z,1.80
2017-12-12T20:37:27.809Z,1.70
2017-12-12T20:39:57.004Z,1.70
2017-12-12T20:42:24.715Z,1.60
2017-12-12T20:44:52.788Z,1.60
2017-12-12T20:47:20.296Z,1.60
2017-12-12T20:49:47.796Z,1.60
2017-12-12T20:52:15.459Z,1.60
2017-12-12T20:54:43.219Z,1.60
2017-12-12T20:57:10.732Z,1.60
2017-12-12T20:59:38.221Z,1.60
2017-12-12T21:02:05.899Z,1.70
2017-12-12T21:04:33.400Z,1.60
2017-12-12T21:07:07.320Z,1.60
2017-12-12T21:09:36.567Z,1.50
2017-12-12T21:12:04.635Z,1.60
2017-12-12T21:14:32.146Z,1.60
2017-12-12T21:16:59.647Z,1.60
2017-12-12T21:19:27.145Z,1.60
2017-12-12T21:21:55.624Z,1.50
2017-12-12T21:24:23.124Z,4.00
2017-12-12T21:26:50.628Z,5.30
2017-12-12T21:29:18.684Z,4.40
2017-12-12T21:31:46.446Z,3.00
2017-12-12T21:34:14.331Z,2.20
2017-12-12T21:36:41.966Z,1.90
2017-12-12T21:39:10.000Z,1.70
2017-12-12T21:41:37.532Z,1.70
2017-12-12T21:44:05.423Z,1.60
2017-12-12T21:46:33.789Z,1.60
2017-12-12T21:49:01.857Z,1.60
2017-12-12T21:51:30.284Z,1.60
2017-12-12T21:53:57.792Z,1.60
2017-12-12T21:56:25.292Z,2.10
2017-12-12T21:58:53.562Z,1.60
2017-12-12T22:01:21.058Z,1.60
2017-12-12T22:03:48.726Z,1.60
2017-12-12T22:06:16.211Z,1.60
2017-12-12T22:08:44.247Z,1.70
2017-12-12T22:11:12.548Z,1.70
2017-12-12T22:13:40.106Z,1.70
2017-12-12T22:16:08.179Z,1.70
2017-12-12T22:18:35.808Z,1.80
2017-12-12T22:21:03.391Z,1.70
2017-12-12T22:23:31.160Z,1.70
2017-12-12T22:25:59.535Z,1.70
2017-12-12T22:28:27.436Z,1.80
2017-12-12T22:30:55.711Z,1.70
2017-12-12T22:33:23.956Z,1.70
2017-12-12T22:35:51.452Z,1.70
2017-12-12T22:38:19.900Z,1.70
2017-12-12T22:40:47.907Z,1.70
2017-12-12T22:43:16.676Z,1.80
2017-12-12T22:45:44.380Z,1.90
2017-12-12T22:48:11.888Z,1.90
2017-12-12T22:50:39.392Z,1.90
2017-12-12T22:53:06.891Z,1.80
2017-12-12T22:55:34.847Z,1.80
2017-12-12T22:58:02.352Z,1.80
2017-12-12T23:00:30.343Z,1.80
2017-12-12T23:02:58.143Z,1.70
2017-12-12T23:05:25.643Z,1.80
2017-12-12T23:07:53.947Z,1.80
2017-12-12T23:10:22.604Z,1.70
2017-12-12T23:12:51.406Z,1.80
2017-12-12T23:15:18.899Z,1.70
2017-12-12T23:17:46.522Z,1.70
2017-12-12T23:20:14.029Z,1.80
2017-12-12T23:22:42.402Z,1.70
2017-12-12T23:25:10.950Z,1.70
2017-12-12T23:27:39.205Z,1.80
2017-12-12T23:30:07.223Z,1.80
2017-12-12T23:32:35.120Z,1.80
2017-12-12T23:35:03.024Z,1.90
2017-12-12T23:37:30.951Z,2.00
2017-12-12T23:39:58.564Z,2.00
2017-12-12T23:42:26.354Z,1.90
2017-12-12T23:44:54.272Z,2.00
2017-12-12T23:47:22.162Z,1.90
2017-12-12T23:49:49.669Z,1.90
2017-12-12T23:52:18.676Z,1.90
2017-12-12T23:54:46.188Z,1.90
2017-12-12T23:57:13.730Z,2.00
2017-12-12T23:59:41.216Z,1.90
